Main page
METAR-TAF:

METAR-TAF

Airports :

Sheremetyevo International Airport

Moscow-Sheremetyevo, Russia

latitude: 55-58N, longitude: 037-25E, elevation: 190 m

Current weather observation

The report was made 28 minutes ago, at 05:00 UTC
Wind 4 kt from the West
Temperature 13°C
Humidity 51%
Pressure 1028 hPa
Visibility 10 km or more
no clouds below 1500 m and no cumulonimbus

METAR: UUEE 240500Z 26002MPS CAVOK 13/03 Q1028 R24C/CLRD62 R24L/CLRD62 NOSIG

Time: 08:28 (05:28 UTC)

Forecast

The report was made 3 hours and 33 minutes ago, at 01:55 UTC
Forecast valid from 24 at 03 UTC to 25 at 03 UTC
Wind 6 kt from the West/Northwest
Visibility 10 km or more
no clouds below 1500 m and no cumulonimbus
Temporary
from 24 at 06 UTC to 24 at 16 UTC
Wind 16 kt from the North/Northwest

TAF: UUEE 240155Z 2403/2503 30003MPS CAVOK TX21/2412Z TN06/2403Z TEMPO 2406/2416 33008MPS

Weather observations and forecasts of more than 4000 airports (METAR and TAF reports).

The available stations are represented by yellow and red dots on the map.

Hover mouse over dot to see the name of the station.

Then click to see weather observations and forecasts.

To change the map : click on the green buttons with a black cross to zoom in, on the green button with a dash to zoom out, or on the green arrows for adjacent maps.


METAR-TAF: